createdAt,value
2022-08-29T00:01:00.328Z,97106.25
2022-08-29T00:02:02.214Z,97105.75
2022-08-29T00:03:08.551Z,97102.84
2022-08-29T00:04:10.910Z,97108.44
2022-08-29T00:05:13.204Z,97099.47
2022-08-29T00:06:15.086Z,97107.94
2022-08-29T00:07:17.015Z,97104.22
2022-08-29T00:08:18.989Z,97103.19
2022-08-29T00:09:20.851Z,97103.72
2022-08-29T00:10:23.087Z,97099.47
2022-08-29T00:11:24.905Z,97109.03
2022-08-29T00:12:26.798Z,97102.13
2022-08-29T00:13:28.743Z,97105.84
2022-08-29T00:14:30.708Z,97102.13
2022-08-29T00:15:32.846Z,97106.63
2022-08-29T00:16:46.675Z,97106.09
2022-08-29T00:17:50.580Z,97110.84
2022-08-29T00:18:52.477Z,97097.06
2022-08-29T00:19:54.396Z,97110.03
2022-08-29T00:20:56.242Z,97107.41
2022-08-29T00:21:58.130Z,97105.78
2022-08-29T00:22:59.977Z,97099.47
2022-08-29T00:24:01.947Z,97106.31
2022-08-29T00:25:05.965Z,97104.22
2022-08-29T00:26:08.061Z,97105.84
2022-08-29T00:27:09.929Z,97112.72
2022-08-29T00:28:12.439Z,97112.72
2022-08-29T00:29:14.490Z,97111.91
2022-08-29T00:30:17.690Z,97114.81
2022-08-29T00:31:19.569Z,97115.88
2022-08-29T00:32:21.398Z,97112.41
2022-08-29T00:33:23.197Z,97105.53
2022-08-29T00:34:25.046Z,97111.06
2022-08-29T00:35:28.638Z,97105.25
2022-08-29T00:36:31.054Z,97105.78
2022-08-29T00:37:33.287Z,97111.06
2022-08-29T00:38:35.433Z,97106.56
2022-08-29T00:39:37.545Z,97105.53
2022-08-29T00:40:51.647Z,97102.66
2022-08-29T00:41:53.991Z,97104.47
2022-08-29T00:42:55.790Z,97106.88
2022-08-29T00:43:57.586Z,97113.78
2022-08-29T00:44:59.524Z,97105.84
2022-08-29T00:46:04.234Z,97106.63
2022-08-29T00:47:09.949Z,97101.09
2022-08-29T00:48:13.685Z,97105.59
2022-08-29T00:49:34.294Z,97100.53
2022-08-29T00:50:39.150Z,97101.81
2022-08-29T00:51:41.708Z,97095.19
2022-08-29T00:52:47.201Z,97100.50
2022-08-29T00:53:52.125Z,97096.25
2022-08-29T00:54:54.715Z,97095.72
2022-08-29T00:55:56.928Z,97098.38
2022-08-29T00:56:59.510Z,97093.31
2022-08-29T00:58:08.843Z,97098.38
2022-08-29T00:59:23.112Z,97097.06
2022-08-29T01:00:28.223Z,97097.84
2022-08-29T01:01:30.191Z,97093.09
2022-08-29T01:02:32.115Z,97095.50
2022-08-29T01:03:34.841Z,97093.63
2022-08-29T01:04:37.476Z,97095.50
2022-08-29T01:05:39.434Z,97093.63
2022-08-29T01:06:41.983Z,97088.34
2022-08-29T01:07:44.084Z,97089.97
2022-08-29T01:08:46.050Z,97092.59
2022-08-29T01:09:47.922Z,97089.97
2022-08-29T01:11:08.893Z,97088.34
2022-08-29T01:12:17.078Z,97091.78
2022-08-29T01:13:18.924Z,97082.81
2022-08-29T01:14:21.590Z,97086.25
2022-08-29T01:15:23.622Z,97085.22
2022-08-29T01:16:26.040Z,97078.84
2022-08-29T01:17:33.764Z,97083.09
2022-08-29T01:18:36.969Z,97084.69
2022-08-29T01:19:44.690Z,97082.88
2022-08-29T01:20:55.522Z,97083.66
2022-08-29T01:22:02.079Z,97087.09
2022-08-29T01:23:14.750Z,97092.38
2022-08-29T01:24:16.543Z,97091.59
2022-08-29T01:25:20.157Z,97089.19
2022-08-29T01:26:23.370Z,97091.03
2022-08-29T01:27:27.844Z,97086.53
2022-08-29T01:28:32.468Z,97091.84
2022-08-29T01:29:35.010Z,97094.72
2022-08-29T01:30:36.771Z,97091.53
2022-08-29T01:31:56.729Z,97088.34
2022-08-29T01:33:01.179Z,97092.06
2022-08-29T01:34:03.318Z,97088.88
2022-08-29T01:35:05.970Z,97087.25
2022-08-29T01:36:10.534Z,97093.34
2022-08-29T01:37:14.391Z,97090.44
2022-08-29T01:38:27.876Z,97087.56
2022-08-29T01:39:32.050Z,97082.25
2022-08-29T01:40:35.373Z,97082.25
2022-08-29T01:41:37.171Z,97083.84
2022-08-29T01:42:39.673Z,97084.66
2022-08-29T01:43:43.350Z,97087.84
2022-08-29T01:44:49.290Z,97094.72
2022-08-29T01:45:51.699Z,97084.97
2022-08-29T01:46:57.968Z,97082.03
2022-08-29T01:48:04.237Z,97087.63
2022-08-29T01:49:08.153Z,97091.28
2022-08-29T01:50:12.043Z,97086.78
2022-08-29T01:51:14.995Z,97087.63
2022-08-29T01:52:17.015Z,97079.91
2022-08-29T01:53:18.955Z,97085.47
2022-08-29T01:54:21.477Z,97085.47
2022-08-29T01:55:23.951Z,97080.97
2022-08-29T01:56:27.969Z,97082.56
2022-08-29T01:57:29.863Z,97078.31
2022-08-29T01:58:31.656Z,97078.06
2022-08-29T01:59:33.688Z,97078.84
2022-08-29T02:00:35.984Z,97079.91
2022-08-29T02:01:43.761Z,97084.16
2022-08-29T02:02:45.673Z,97083.34
2022-08-29T02:03:47.552Z,97078.84
2022-08-29T02:04:50.302Z,97078.84
2022-08-29T02:05:52.164Z,97079.66
2022-08-29T02:06:55.339Z,97081.50
2022-08-29T02:07:57.772Z,97079.66
2022-08-29T02:08:59.593Z,97083.09
2022-08-29T02:10:01.530Z,97085.75
2022-08-29T02:11:03.417Z,97083.09
2022-08-29T02:12:07.671Z,97081.25
2022-08-29T02:13:10.650Z,97089.19
2022-08-29T02:14:16.668Z,97083.91
2022-08-29T02:15:22.050Z,97084.69
2022-08-29T02:16:26.152Z,97084.44
2022-08-29T02:17:28.245Z,97084.69
2022-08-29T02:18:30.109Z,97082.88
2022-08-29T02:19:32.313Z,97080.47
2022-08-29T02:20:34.181Z,97084.16
2022-08-29T02:21:36.083Z,97087.06
2022-08-29T02:22:39.015Z,97088.91
2022-08-29T02:23:40.790Z,97086.25
2022-08-29T02:24:42.756Z,97088.34
2022-08-29T02:25:46.928Z,97086.78
2022-08-29T02:26:48.763Z,97091.78
2022-08-29T02:27:52.576Z,97091.00
2022-08-29T02:28:54.843Z,97090.19
2022-08-29T02:29:56.950Z,97093.88
2022-08-29T02:30:59.486Z,97094.72
2022-08-29T02:32:01.342Z,97099.19
2022-08-29T02:33:03.560Z,97094.72
2022-08-29T02:34:09.131Z,97090.44
2022-08-29T02:35:13.399Z,97100.50
2022-08-29T02:36:15.356Z,97096.25
2022-08-29T02:37:18.095Z,97098.38
2022-08-29T02:38:20.639Z,97101.25
2022-08-29T02:39:22.436Z,97093.56
2022-08-29T02:40:31.719Z,97093.31
2022-08-29T02:41:34.145Z,97094.09
2022-08-29T02:42:35.962Z,97097.53
2022-08-29T02:43:37.978Z,97097.31
2022-08-29T02:44:39.873Z,97096.75
2022-08-29T02:45:42.344Z,97099.16
2022-08-29T02:46:44.317Z,97095.72
2022-08-29T02:47:46.283Z,97097.31
2022-08-29T02:48:54.117Z,97094.66
2022-08-29T02:50:06.660Z,97092.78
2022-08-29T02:51:08.433Z,97097.06
2022-08-29T02:52:10.640Z,97095.19
2022-08-29T02:53:13.699Z,97096.00
2022-08-29T02:54:15.551Z,97093.63
2022-08-29T02:55:18.405Z,97092.78
2022-08-29T02:56:20.694Z,97085.94
2022-08-29T02:57:22.637Z,97084.06
2022-08-29T02:58:26.755Z,97092.25
2022-08-29T02:59:28.614Z,97098.38
2022-08-29T03:00:31.348Z,97088.81
2022-08-29T03:01:33.839Z,97104.69
2022-08-29T03:02:35.876Z,97089.06
2022-08-29T03:03:37.739Z,97083.53
2022-08-29T03:04:39.569Z,97095.97
2022-08-29T03:05:42.123Z,97092.53
2022-08-29T03:06:43.976Z,97100.47
2022-08-29T03:07:50.704Z,97103.13
2022-08-29T03:08:54.197Z,97097.81
2022-08-29T03:09:56.235Z,97100.47
2022-08-29T03:10:58.493Z,97096.75
2022-08-29T03:12:00.310Z,97095.19
2022-08-29T03:13:02.700Z,97094.09
2022-08-29T03:14:04.655Z,97102.28
2022-08-29T03:15:07.523Z,97107.84
2022-08-29T03:16:09.413Z,97108.09
2022-08-29T03:17:11.258Z,97109.97
2022-08-29T03:18:13.530Z,97104.66
2022-08-29T03:19:15.456Z,97107.31
2022-08-29T03:20:18.587Z,97102.25
2022-08-29T03:21:21.860Z,97101.72
2022-08-29T03:22:23.676Z,97100.09
2022-08-29T03:23:25.566Z,97102.75
2022-08-29T03:24:27.660Z,97103.56
2022-08-29T03:25:29.731Z,97108.31
2022-08-29T03:26:31.569Z,97102.22
2022-08-29T03:27:33.903Z,97110.16
2022-08-29T03:28:35.859Z,97097.97
2022-08-29T03:29:38.738Z,97105.13
2022-08-29T03:30:40.680Z,97103.03
2022-08-29T03:31:42.562Z,97106.47
2022-08-29T03:32:45.204Z,97111.50
2022-08-29T03:33:47.122Z,97108.88
2022-08-29T03:34:48.936Z,97109.66
2022-08-29T03:35:51.167Z,97104.38
2022-08-29T03:36:53.045Z,97118.38
2022-08-29T03:37:56.024Z,97109.66
2022-08-29T03:38:58.224Z,97114.69
2022-08-29T03:40:00.265Z,97110.44
2022-08-29T03:41:02.138Z,97106.75
2022-08-29T03:42:04.961Z,97103.31
2022-08-29T03:43:06.842Z,97105.69
2022-08-29T03:44:09.032Z,97111.00
2022-08-29T03:45:12.596Z,97106.50
2022-08-29T03:46:14.496Z,97107.56
2022-08-29T03:47:16.505Z,97113.63
2022-08-29T03:48:18.405Z,97109.13
2022-08-29T03:49:20.315Z,97116.28
2022-08-29T03:50:22.209Z,97113.63
2022-08-29T03:51:26.277Z,97112.06
2022-08-29T03:52:31.517Z,97114.41
2022-08-29T03:53:33.782Z,97119.44
2022-08-29T03:54:36.116Z,97115.19
2022-08-29T03:55:38.356Z,97113.63
2022-08-29T03:56:40.222Z,97119.94
2022-08-29T03:57:42.104Z,97118.09
2022-08-29T03:58:44.202Z,97116.50
2022-08-29T03:59:46.876Z,97115.41
2022-08-29T04:00:48.712Z,97117.25
2022-08-29T04:01:51.198Z,97113.56
2022-08-29T04:02:56.036Z,97125.75
2022-08-29T04:03:58.257Z,97121.25
2022-08-29T04:05:09.325Z,97122.56
2022-08-29T04:06:11.983Z,97128.03
2022-08-29T04:07:15.111Z,97126.94
2022-08-29T04:08:16.989Z,97129.81
2022-08-29T04:09:18.855Z,97128.00
2022-08-29T04:10:22.726Z,97125.06
2022-08-29T04:11:25.655Z,97130.91
2022-08-29T04:12:27.576Z,97132.53
2022-08-29T04:13:29.431Z,97137.31
2022-08-29T04:14:32.705Z,97138.13
2022-08-29T04:15:35.299Z,97138.13
2022-08-29T04:16:37.151Z,97132.81
2022-08-29T04:17:52.815Z,97138.91
2022-08-29T04:18:55.644Z,97138.13
2022-08-29T04:19:57.530Z,97137.88
2022-08-29T04:21:02.476Z,97142.66
2022-08-29T04:22:06.096Z,97143.72
2022-08-29T04:23:08.215Z,97146.91
2022-08-29T04:24:10.140Z,97135.78
2022-08-29T04:25:13.614Z,97138.41
2022-08-29T04:26:37.257Z,97139.22
2022-08-29T04:27:39.923Z,97136.31
2022-08-29T04:28:41.997Z,97142.41
2022-08-29T04:29:44.001Z,97137.13
2022-08-29T04:30:51.596Z,97137.13
2022-08-29T04:31:54.549Z,97139.75
2022-08-29T04:32:56.625Z,97139.75
2022-08-29T04:33:58.569Z,97144.81
2022-08-29T04:35:00.399Z,97138.16
2022-08-29T04:36:06.336Z,97133.94
2022-08-29T04:37:08.196Z,97142.09
2022-08-29T04:38:10.049Z,97142.63
2022-08-29T04:39:12.527Z,97134.41
2022-08-29T04:40:16.578Z,97140.53
2022-08-29T04:41:19.041Z,97139.47
2022-08-29T04:42:20.996Z,97139.22
2022-08-29T04:43:22.804Z,97137.59
2022-08-29T04:44:24.711Z,97143.72
2022-08-29T04:45:26.874Z,97146.09
2022-08-29T04:46:29.163Z,97146.91
2022-08-29T04:47:31.574Z,97146.09
2022-08-29T04:48:35.238Z,97146.91
2022-08-29T04:49:37.244Z,97147.16
2022-08-29T04:50:39.325Z,97143.16
2022-08-29T04:51:41.179Z,97148.47
2022-08-29T04:52:44.124Z,97151.91
2022-08-29T04:53:46.340Z,97156.63
2022-08-29T04:54:48.296Z,97154.78
2022-08-29T04:56:00.147Z,97158.50
2022-08-29T04:57:05.257Z,97154.00
2022-08-29T04:58:10.089Z,97154.00
2022-08-29T04:59:13.011Z,97156.38
2022-08-29T05:00:16.882Z,97155.56
2022-08-29T05:01:20.721Z,97157.44
2022-08-29T05:02:23.179Z,97157.91
2022-08-29T05:03:25.096Z,97156.56
2022-08-29T05:04:27.210Z,97158.44
2022-08-29T05:05:29.102Z,97159.97
2022-08-29T05:06:31.023Z,97165.50
2022-08-29T05:07:33.113Z,97159.66
2022-08-29T05:08:41.146Z,97166.00
2022-08-29T05:09:43.450Z,97169.94
2022-08-29T05:10:46.620Z,97167.56
2022-08-29T05:11:48.601Z,97163.53
2022-08-29T05:12:50.499Z,97161.44
2022-08-29T05:13:54.117Z,97161.22
2022-08-29T05:14:56.439Z,97164.16
2022-08-29T05:15:58.480Z,97166.56
2022-08-29T05:17:00.363Z,97162.31
2022-08-29T05:18:02.207Z,97166.81
2022-08-29T05:19:06.273Z,97170.47
2022-08-29T05:20:09.060Z,97165.19
2022-08-29T05:21:11.530Z,97158.88
2022-08-29T05:22:14.054Z,97161.00
2022-08-29T05:23:17.275Z,97158.34
2022-08-29T05:24:19.099Z,97159.19
2022-08-29T05:25:21.065Z,97159.19
2022-08-29T05:26:23.296Z,97158.34
2022-08-29T05:27:25.272Z,97161.56
2022-08-29T05:28:27.372Z,97166.34
2022-08-29T05:29:29.550Z,97156.31
2022-08-29T05:30:34.847Z,97157.44
2022-08-29T05:31:38.925Z,97157.19
2022-08-29T05:32:40.879Z,97159.31
2022-08-29T05:33:42.779Z,97166.22
2022-08-29T05:34:47.066Z,97162.25
2022-08-29T05:35:48.871Z,97169.16
2022-08-29T05:36:50.755Z,97167.06
2022-08-29T05:37:52.681Z,97162.31
2022-08-29T05:38:54.944Z,97161.25
2022-08-29T05:39:56.754Z,97163.91
2022-08-29T05:40:58.639Z,97165.75
2022-08-29T05:42:00.597Z,97169.44
2022-08-29T05:43:02.401Z,97167.06
2022-08-29T05:44:04.237Z,97165.97
2022-08-29T05:45:06.733Z,97161.97
2022-08-29T05:46:10.291Z,97166.97
2022-08-29T05:47:13.077Z,97168.78
2022-08-29T05:48:15.576Z,97161.69
2022-08-29T05:49:17.683Z,97170.66
2022-08-29T05:50:19.591Z,97161.38
2022-08-29T05:51:22.228Z,97172.19
2022-08-29T05:52:24.447Z,97172.44
2022-08-29T05:53:26.651Z,97174.06
2022-08-29T05:54:29.968Z,97174.06
2022-08-29T05:55:32.271Z,97170.09
2022-08-29T05:56:34.146Z,97173.06
2022-08-29T05:57:35.925Z,97172.81
2022-08-29T05:58:37.763Z,97173.91
2022-08-29T05:59:40.052Z,97177.09
2022-08-29T06:00:43.406Z,97181.31
2022-08-29T06:01:47.157Z,97184.28
2022-08-29T06:02:49.199Z,97180.31
2022-08-29T06:03:53.251Z,97184.59
2022-08-29T06:04:55.262Z,97178.22
2022-08-29T06:05:57.169Z,97185.94
2022-08-29T06:06:59.020Z,97180.63
2022-08-29T06:08:01.434Z,97181.41
2022-08-29T06:09:03.582Z,97178.53
2022-08-29T06:10:07.158Z,97190.16
2022-08-29T06:11:14.124Z,97186.72
2022-08-29T06:12:15.942Z,97191.75
2022-08-29T06:13:17.780Z,97183.81
2022-08-29T06:14:20.049Z,97186.72
2022-08-29T06:15:22.865Z,97193.63
2022-08-29T06:16:25.670Z,97193.63
2022-08-29T06:17:28.414Z,97187.03
2022-08-29T06:18:34.538Z,97192.31
2022-08-29T06:19:39.827Z,97190.22
2022-08-29T06:20:41.723Z,97192.84
2022-08-29T06:21:43.665Z,97182.28
2022-08-29T06:22:45.626Z,97183.63
2022-08-29T06:23:47.994Z,97191.00
2022-08-29T06:24:52.521Z,97189.41
2022-08-29T06:25:57.870Z,97189.97
2022-08-29T06:27:00.265Z,97190.50
2022-08-29T06:28:02.709Z,97192.09
2022-08-29T06:29:05.699Z,97197.94
2022-08-29T06:30:07.823Z,97191.63
2022-08-29T06:31:11.311Z,97191.38
2022-08-29T06:32:13.357Z,97194.56
2022-08-29T06:33:15.290Z,97198.78
2022-08-29T06:34:17.241Z,97196.69
2022-08-29T06:35:19.140Z,97197.47
2022-08-29T06:36:21.054Z,97200.94
2022-08-29T06:37:22.841Z,97200.66
2022-08-29T06:38:24.746Z,97198.22
2022-08-29T06:39:26.726Z,97197.28
2022-08-29T06:40:28.634Z,97198.59
2022-08-29T06:41:30.774Z,97203.03
2022-08-29T06:42:32.623Z,97204.09
2022-08-29T06:43:34.662Z,97208.88
2022-08-29T06:44:38.462Z,97200.47
2022-08-29T06:45:44.090Z,97206.31
2022-08-29T06:46:49.622Z,97203.38
2022-08-29T06:47:51.841Z,97208.97
2022-08-29T06:48:54.247Z,97203.19
2022-08-29T06:49:56.096Z,97203.75
2022-08-29T06:51:00.568Z,97195.81
2022-08-29T06:52:02.410Z,97207.72
2022-08-29T06:53:26.058Z,97209.06
2022-08-29T06:54:28.179Z,97206.72
2022-08-29T06:55:30.363Z,97200.94
2022-08-29T06:56:34.276Z,97206.78
2022-08-29T06:57:44.826Z,97200.97
2022-08-29T06:58:46.998Z,97201.75
2022-08-29T06:59:49.007Z,97199.66
2022-08-29T07:00:50.972Z,97201.28
2022-08-29T07:01:53.299Z,97199.19
2022-08-29T07:02:55.236Z,97201.31
2022-08-29T07:03:57.778Z,97205.56
2022-08-29T07:04:59.957Z,97201.31
2022-08-29T07:06:02.112Z,97199.19
2022-08-29T07:07:05.640Z,97201.56
2022-08-29T07:08:07.529Z,97205.56
2022-08-29T07:09:09.427Z,97196.56
2022-08-29T07:10:12.801Z,97197.66
2022-08-29T07:11:14.777Z,97204.88
2022-08-29T07:12:16.661Z,97201.47
2022-08-29T07:13:18.466Z,97202.53
2022-08-29T07:14:20.590Z,97208.63
2022-08-29T07:15:23.792Z,97204.97
2022-08-29T07:16:26.394Z,97208.44
2022-08-29T07:17:31.233Z,97209.53
2022-08-29T07:18:33.121Z,97202.63
2022-08-29T07:19:35.021Z,97213.75
2022-08-29T07:20:38.071Z,97213.53
2022-08-29T07:21:40.009Z,97211.16
2022-08-29T07:22:41.959Z,97212.22
2022-08-29T07:23:43.888Z,97211.41
2022-08-29T07:24:45.713Z,97210.88
2022-08-29T07:25:47.762Z,97218.63
2022-08-29T07:26:49.850Z,97212.56
2022-08-29T07:27:52.045Z,97211.53
2022-08-29T07:28:56.654Z,97209.69
2022-08-29T07:30:00.909Z,97215.03
2022-08-29T07:31:03.019Z,97208.66
2022-08-29T07:32:05.547Z,97213.47
2022-08-29T07:33:07.471Z,97212.91
2022-08-29T07:34:09.416Z,97214.78
2022-08-29T07:35:18.590Z,97217.69
2022-08-29T07:36:26.535Z,97211.34
2022-08-29T07:37:28.422Z,97216.94
2022-08-29T07:38:31.408Z,97212.97
2022-08-29T07:39:33.307Z,97207.44
2022-08-29T07:40:35.279Z,97210.91
2022-08-29T07:41:38.158Z,97204.59
2022-08-29T07:42:40.374Z,97208.31
2022-08-29T07:43:42.960Z,97206.66
2022-08-29T07:44:44.875Z,97203.16
2022-08-29T07:45:46.832Z,97210.03
2022-08-29T07:46:49.447Z,97205.81
2022-08-29T07:47:51.299Z,97210.28
2022-08-29T07:48:53.234Z,97207.63
2022-08-29T07:49:55.216Z,97208.69
2022-08-29T07:50:57.104Z,97211.34
2022-08-29T07:51:59.011Z,97212.38
2022-08-29T07:53:00.900Z,97212.38
2022-08-29T07:54:04.582Z,97219.31
2022-08-29T07:55:07.262Z,97218.22
2022-08-29T07:56:10.581Z,97205.53
2022-08-29T07:57:13.251Z,97210.56
2022-08-29T07:58:15.417Z,97214.84
2022-08-29T07:59:18.334Z,97221.72
2022-08-29T08:00:20.358Z,97212.19
2022-08-29T08:01:22.724Z,97216.41
2022-08-29T08:02:24.652Z,97216.13
2022-08-29T08:03:27.419Z,97215.34
2022-08-29T08:04:29.398Z,97212.94
2022-08-29T08:05:31.465Z,97210.31
2022-08-29T08:06:35.878Z,97218.56
2022-08-29T08:07:40.218Z,97218.56
2022-08-29T08:08:42.739Z,97214.59
2022-08-29T08:09:44.697Z,97221.75
2022-08-29T08:10:51.913Z,97215.97
2022-08-29T08:11:54.057Z,97223.75
2022-08-29T08:12:55.933Z,97221.09
2022-08-29T08:13:58.057Z,97225.91
2022-08-29T08:15:00.045Z,97220.94
2022-08-29T08:16:11.523Z,97226.22
2022-08-29T08:17:13.433Z,97220.69
2022-08-29T08:18:15.463Z,97223.34
2022-08-29T08:19:18.430Z,97221.75
2022-08-29T08:20:20.367Z,97219.66
2022-08-29T08:21:22.990Z,97219.91
2022-08-29T08:22:24.914Z,97217.78
2022-08-29T08:23:26.808Z,97217.22
2022-08-29T08:24:28.717Z,97216.97
2022-08-29T08:25:30.884Z,97215.91
2022-08-29T08:26:33.333Z,97218.31
2022-08-29T08:27:38.094Z,97213.00
2022-08-29T08:28:43.971Z,97211.97
2022-08-29T08:29:45.919Z,97211.97
2022-08-29T08:30:48.139Z,97219.66
2022-08-29T08:31:50.541Z,97216.19
2022-08-29T08:32:54.756Z,97222.03
2022-08-29T08:33:57.637Z,97224.97
2022-08-29T08:34:59.613Z,97215.94
2022-08-29T08:36:01.493Z,97210.13
2022-08-29T08:37:07.923Z,97215.44
2022-08-29T08:38:10.534Z,97217.53
2022-08-29T08:39:13.221Z,97216.50
2022-08-29T08:40:21.466Z,97222.88
2022-08-29T08:41:28.221Z,97219.16
2022-08-29T08:42:44.284Z,97219.16
2022-08-29T08:43:56.438Z,97213.84
2022-08-29T08:45:15.211Z,97224.75
2022-08-29T08:46:18.450Z,97220.75
2022-08-29T08:47:26.136Z,97225.00
2022-08-29T08:48:33.820Z,97221.28
2022-08-29T08:49:42.707Z,97227.16
2022-08-29T08:50:44.844Z,97230.59
2022-08-29T08:51:51.341Z,97225.03
2022-08-29T08:52:57.942Z,97223.97
2022-08-29T08:54:02.476Z,97226.88
2022-08-29T08:55:17.581Z,97225.00
2022-08-29T08:56:31.211Z,97223.97
2022-08-29T08:57:40.281Z,97222.63
2022-08-29T08:59:00.591Z,97225.28
2022-08-29T09:00:04.482Z,97221.56
2022-08-29T09:01:09.461Z,97217.06
2022-08-29T09:02:17.952Z,97223.97
2022-08-29T09:03:42.491Z,97220.00
2022-08-29T09:04:44.453Z,97218.66
2022-08-29T09:05:49.227Z,97221.31
2022-08-29T09:06:51.504Z,97223.97
2022-08-29T09:07:56.372Z,97225.31
2022-08-29T09:09:24.597Z,97225.03
2022-08-29T09:10:38.995Z,97222.16
2022-08-29T09:11:49.901Z,97218.47
2022-08-29T09:13:10.156Z,97218.97
2022-08-29T09:14:18.547Z,97222.19
2022-08-29T09:15:23.693Z,97226.16
2022-08-29T09:16:38.061Z,97222.44
2022-08-29T09:17:45.298Z,97226.94
2022-08-29T09:18:52.850Z,97227.75
2022-08-29T09:19:57.639Z,97226.94
2022-08-29T09:21:00.209Z,97223.22
2022-08-29T09:22:13.435Z,97227.19
2022-08-29T09:23:18.824Z,97223.75
2022-08-29T09:24:33.027Z,97225.59
2022-08-29T09:25:36.646Z,97218.97
2022-08-29T09:26:38.572Z,97221.34
2022-08-29T09:27:40.532Z,97222.94
2022-08-29T09:28:42.461Z,97227.22
2022-08-29T09:29:44.392Z,97223.47
2022-08-29T09:31:06.101Z,97217.63
2022-08-29T09:32:11.177Z,97220.81
2022-08-29T09:33:14.825Z,97220.56
2022-08-29T09:34:57.058Z,97219.75
2022-08-29T09:35:56.572Z,97223.47
2022-08-29T09:36:58.431Z,97228.50
2022-08-29T09:38:08.996Z,97229.31
2022-08-29T09:39:17.079Z,97225.06
2022-08-29T09:40:19.485Z,97229.31
2022-08-29T09:41:27.667Z,97229.31
2022-08-29T09:42:31.298Z,97224.50
2022-08-29T09:43:39.189Z,97226.69
2022-08-29T09:44:43.571Z,97226.13
2022-08-29T09:46:03.996Z,97226.66
2022-08-29T09:47:05.832Z,97226.13
2022-08-29T09:48:10.276Z,97225.06
2022-08-29T09:49:14.826Z,97220.81
2022-08-29T09:50:24.915Z,97220.50
2022-08-29T09:51:29.214Z,97218.34
2022-08-29T09:52:31.667Z,97219.41
2022-08-29T09:53:33.633Z,97222.06
2022-08-29T09:54:35.503Z,97219.94
2022-08-29T09:55:45.272Z,97219.66
2022-08-29T09:57:09.400Z,97219.13
2022-08-29T09:58:18.582Z,97224.47
2022-08-29T09:59:26.350Z,97213.28
2022-08-29T10:00:30.520Z,97218.34
2022-08-29T10:01:36.466Z,97220.78
2022-08-29T10:02:47.901Z,97219.69
2022-08-29T10:03:52.529Z,97219.97
2022-08-29T10:05:00.625Z,97219.97
2022-08-29T10:06:12.879Z,97220.78
2022-08-29T10:07:37.675Z,97222.13
2022-08-29T10:08:40.860Z,97224.22
2022-08-29T10:10:51.364Z,97220.78
2022-08-29T10:12:00.778Z,97223.44
2022-08-29T10:13:12.144Z,97215.47
2022-08-29T10:14:17.650Z,97216.00
2022-08-29T10:15:46.962Z,97209.63
2022-08-29T10:16:52.082Z,97214.13
2022-08-29T10:18:33.273Z,97206.66
2022-08-29T10:19:35.118Z,97218.88
2022-08-29T10:20:45.991Z,97217.56
2022-08-29T10:21:48.450Z,97211.94
2022-08-29T10:22:57.992Z,97209.59
2022-08-29T10:24:17.288Z,97209.06
2022-08-29T10:25:21.511Z,97206.91
2022-08-29T10:27:01.698Z,97208.50
2022-08-29T10:28:09.565Z,97209.81
2022-08-29T10:29:14.707Z,97216.75
2022-08-29T10:30:19.152Z,97207.44
2022-08-29T10:31:26.950Z,97215.44
2022-08-29T10:32:34.599Z,97211.94
2022-08-29T10:33:42.037Z,97215.44
2022-08-29T10:34:43.855Z,97209.53
2022-08-29T10:35:55.458Z,97219.13
2022-08-29T10:37:01.221Z,97209.00
2022-08-29T10:38:03.033Z,97208.19
2022-08-29T10:39:22.215Z,97207.16
2022-08-29T10:40:28.712Z,97207.66
2022-08-29T10:41:50.994Z,97213.78
2022-08-29T10:42:58.716Z,97209.28
2022-08-29T10:44:09.919Z,97212.47
2022-08-29T10:45:13.665Z,97217.78
2022-08-29T10:46:40.505Z,97211.09
2022-08-29T10:47:53.442Z,97205.78
2022-08-29T10:49:21.458Z,97210.84
2022-08-29T10:50:43.641Z,97212.44
2022-08-29T10:51:56.034Z,97205.22
2022-08-29T10:53:16.865Z,97210.28
2022-08-29T10:54:18.629Z,97213.19
2022-08-29T10:55:32.711Z,97212.13
2022-08-29T10:56:39.578Z,97211.84
2022-08-29T10:57:43.659Z,97215.31
2022-08-29T10:58:57.332Z,97211.31
2022-08-29T10:59:59.109Z,97212.91
2022-08-29T11:01:27.485Z,97209.97
2022-08-29T11:02:40.670Z,97204.59
2022-08-29T11:03:53.131Z,97204.56
2022-08-29T11:04:57.277Z,97202.63
2022-08-29T11:06:01.601Z,97202.03
2022-08-29T11:07:10.037Z,97201.69
2022-08-29T11:08:16.471Z,97195.50
2022-08-29T11:09:26.595Z,97198.09
2022-08-29T11:10:31.025Z,97196.44
2022-08-29T11:11:33.637Z,97190.53
2022-08-29T11:12:41.832Z,97195.50
2022-08-29T11:13:46.795Z,97195.84
2022-08-29T11:15:00.506Z,97195.56
2022-08-29T11:16:02.416Z,97191.03
2022-08-29T11:17:06.080Z,97197.38
2022-08-29T11:18:22.293Z,97191.84
2022-08-29T11:19:26.882Z,97194.03
2022-08-29T11:20:35.413Z,97194.66
2022-08-29T11:21:37.212Z,97195.81
2022-08-29T11:22:44.896Z,97186.81
2022-08-29T11:23:48.516Z,97187.34
2022-08-29T11:25:13.568Z,97193.53
2022-08-29T11:26:34.432Z,97187.16
2022-08-29T11:28:01.444Z,97194.13
2022-08-29T11:29:22.158Z,97190.16
2022-08-29T11:30:36.367Z,97188.31
2022-08-29T11:32:19.858Z,97192.34
2022-08-29T11:33:40.392Z,97182.25
2022-08-29T11:35:00.471Z,97185.72
2022-08-29T11:36:05.185Z,97186.28
2022-08-29T11:37:13.138Z,97183.63
2022-08-29T11:38:14.965Z,97187.34
2022-08-29T11:39:25.702Z,97192.69
2022-08-29T11:40:48.446Z,97184.16
2022-08-29T11:41:56.429Z,97189.50
2022-08-29T11:43:02.667Z,97186.47
2022-08-29T11:44:28.675Z,97181.41
2022-08-29T11:45:37.247Z,97190.88
2022-08-29T11:46:49.298Z,97189.41
2022-08-29T11:48:24.119Z,97190.31
2022-08-29T11:49:29.006Z,97191.38
2022-08-29T11:50:38.646Z,97192.69
2022-08-29T11:51:41.725Z,97192.41
2022-08-29T11:52:53.136Z,97192.69
2022-08-29T11:53:55.366Z,97197.25
2022-08-29T11:55:00.485Z,97185.78
2022-08-29T11:56:14.633Z,97183.56
2022-08-29T11:57:16.702Z,97187.31
2022-08-29T11:58:18.595Z,97181.69
2022-08-29T11:59:39.033Z,97184.28
2022-08-29T12:00:40.903Z,97188.84
2022-08-29T12:01:56.356Z,97188.13
2022-08-29T12:02:58.551Z,97193.19
2022-08-29T12:04:01.117Z,97197.50
2022-08-29T12:05:05.111Z,97188.16
2022-08-29T12:06:25.547Z,97189.00
2022-08-29T12:07:38.597Z,97184.75
2022-08-29T12:08:42.938Z,97186.97
2022-08-29T12:09:48.747Z,97176.91
2022-08-29T12:10:53.546Z,97191.63
2022-08-29T12:11:58.493Z,97183.94
2022-08-29T12:13:01.673Z,97192.00
2022-08-29T12:14:04.756Z,97188.03
2022-08-29T12:15:25.460Z,97191.78
2022-08-29T12:16:44.597Z,97192.06
2022-08-29T12:18:03.631Z,97185.94
2022-08-29T12:19:05.959Z,97191.50
2022-08-29T12:20:08.385Z,97185.38
2022-08-29T12:21:28.840Z,97192.78
2022-08-29T12:23:05.879Z,97187.13
2022-08-29T12:24:26.249Z,97191.94
2022-08-29T12:25:28.059Z,97183.41
2022-08-29T12:26:50.375Z,97190.16
2022-08-29T12:28:01.308Z,97185.28
2022-08-29T12:29:10.471Z,97181.59
2022-08-29T12:30:14.673Z,97176.63
2022-08-29T12:31:31.863Z,97176.06
2022-08-29T12:32:43.355Z,97178.28
2022-08-29T12:34:01.532Z,97178.22
2022-08-29T12:35:18.490Z,97177.97
2022-08-29T12:36:31.375Z,97178.44
2022-08-29T12:37:43.053Z,97176.94
2022-08-29T12:38:51.025Z,97170.91
2022-08-29T12:40:15.821Z,97174.44
2022-08-29T12:41:20.325Z,97171.69
2022-08-29T12:42:43.367Z,97174.97
2022-08-29T12:43:46.123Z,97174.47
2022-08-29T12:44:50.717Z,97171.91
2022-08-29T12:45:53.237Z,97170.13
2022-08-29T12:47:07.487Z,97173.09
2022-08-29T12:48:12.362Z,97171.13
2022-08-29T12:49:14.170Z,97165.66